createdAt,value
2023-04-11T00:01:28.249Z,89.92
2023-04-11T00:03:55.365Z,89.08
2023-04-11T00:06:22.238Z,91.50
2023-04-11T00:08:49.038Z,89.04
2023-04-11T00:11:16.426Z,89.85
2023-04-11T00:13:43.841Z,90.66
2023-04-11T00:16:10.911Z,91.36
2023-04-11T00:18:39.725Z,92.53
2023-04-11T00:21:08.644Z,94.18
2023-04-11T00:23:35.676Z,94.68
2023-04-11T00:26:03.638Z,94.85
2023-04-11T00:28:30.551Z,94.94
2023-04-11T00:30:57.344Z,93.77
2023-04-11T00:33:24.089Z,95.38
2023-04-11T00:35:50.990Z,94.97
2023-04-11T00:38:17.966Z,95.43
2023-04-11T00:40:44.838Z,95.38
2023-04-11T00:43:11.674Z,95.94
2023-04-11T00:45:39.028Z,96.22
2023-04-11T00:48:06.572Z,94.42
2023-04-11T00:50:33.576Z,94.61
2023-04-11T00:53:00.453Z,95.65
2023-04-11T00:55:27.752Z,94.46
2023-04-11T00:57:55.491Z,94.34
2023-04-11T01:00:23.409Z,93.25
2023-04-11T01:02:50.461Z,93.75
2023-04-11T01:05:17.763Z,93.72
2023-04-11T01:07:47.150Z,93.14
2023-04-11T01:10:15.314Z,94.41
2023-04-11T01:12:42.756Z,94.06
2023-04-11T01:15:10.058Z,92.90
2023-04-11T01:17:36.973Z,93.34
2023-04-11T01:20:07.567Z,92.63
2023-04-11T01:22:34.568Z,94.06
2023-04-11T01:25:02.455Z,93.50
2023-04-11T01:27:29.167Z,94.71
2023-04-11T01:29:55.993Z,93.42
2023-04-11T01:32:22.762Z,93.69
2023-04-11T01:34:51.620Z,93.39
2023-04-11T01:37:18.389Z,94.15
2023-04-11T01:39:45.135Z,93.52
2023-04-11T01:42:13.170Z,93.67
2023-04-11T01:44:40.186Z,93.83
2023-04-11T01:47:07.139Z,94.52
2023-04-11T01:49:33.967Z,92.33
2023-04-11T01:52:00.707Z,94.02
2023-04-11T01:54:27.481Z,92.88
2023-04-11T01:56:55.135Z,92.43
2023-04-11T01:59:21.941Z,91.62
2023-04-11T02:01:48.760Z,92.57
2023-04-11T02:04:15.720Z,93.50
2023-04-11T02:06:42.529Z,93.37
2023-04-11T02:09:09.366Z,93.45
2023-04-11T02:11:36.274Z,93.60
2023-04-11T02:14:04.104Z,93.83
2023-04-11T02:16:30.916Z,92.75
2023-04-11T02:18:58.276Z,94.12
2023-04-11T02:21:25.217Z,93.79
2023-04-11T02:23:51.994Z,93.64
2023-04-11T02:26:18.743Z,93.86
2023-04-11T02:28:45.531Z,94.20
2023-04-11T02:31:12.341Z,94.57
2023-04-11T02:33:39.129Z,93.80
2023-04-11T02:36:06.415Z,94.24
2023-04-11T02:38:33.319Z,94.15
2023-04-11T02:41:00.739Z,94.83
2023-04-11T02:43:27.549Z,93.58
2023-04-11T02:46:01.955Z,94.21
2023-04-11T02:48:32.869Z,94.32
2023-04-11T02:50:59.644Z,92.58
2023-04-11T02:53:26.410Z,93.07
2023-04-11T02:55:53.146Z,92.64
2023-04-11T02:58:26.023Z,92.06
2023-04-11T03:00:52.810Z,92.68
2023-04-11T03:03:19.717Z,92.65
2023-04-11T03:05:47.213Z,93.43
2023-04-11T03:08:14.028Z,93.01
2023-04-11T03:10:40.764Z,92.72
2023-04-11T03:13:07.574Z,93.35
2023-04-11T03:15:34.355Z,93.81
2023-04-11T03:18:01.180Z,93.97
2023-04-11T03:20:27.983Z,94.35
2023-04-11T03:22:54.748Z,95.70
2023-04-11T03:25:21.671Z,94.48
2023-04-11T03:27:48.644Z,95.38
2023-04-11T03:30:15.780Z,94.74
2023-04-11T03:32:42.780Z,93.96
2023-04-11T03:35:09.906Z,94.92
2023-04-11T03:37:37.007Z,94.12
2023-04-11T03:40:07.244Z,93.73
2023-04-11T03:42:36.072Z,94.63
2023-04-11T03:45:03.331Z,95.38
2023-04-11T03:47:30.368Z,93.72
2023-04-11T03:49:57.245Z,94.40
2023-04-11T03:52:24.031Z,95.10
2023-04-11T03:54:50.869Z,95.12
2023-04-11T03:57:17.603Z,95.30
2023-04-11T03:59:48.199Z,94.88
2023-04-11T04:02:18.097Z,95.08
2023-04-11T04:04:47.294Z,95.26
2023-04-11T04:07:14.953Z,94.19
2023-04-11T04:09:41.762Z,94.00
2023-04-11T04:12:08.648Z,95.16
2023-04-11T04:14:35.436Z,94.57
2023-04-11T04:17:02.855Z,94.33
2023-04-11T04:19:29.554Z,95.10
2023-04-11T04:21:58.383Z,95.24
2023-04-11T04:24:29.771Z,95.71
2023-04-11T04:27:01.054Z,95.66
2023-04-11T04:29:34.433Z,95.27
2023-04-11T04:32:03.398Z,95.49
2023-04-11T04:34:30.194Z,94.20
2023-04-11T04:36:59.811Z,94.68
2023-04-11T04:39:30.245Z,95.73
2023-04-11T04:41:59.793Z,94.33
2023-04-11T04:44:26.869Z,95.88
2023-04-11T04:46:57.290Z,94.23
2023-04-11T04:49:24.044Z,94.69
2023-04-11T04:51:51.470Z,94.01
2023-04-11T04:54:19.613Z,95.22
2023-04-11T04:56:48.448Z,95.72
2023-04-11T04:59:16.526Z,94.90
2023-04-11T05:01:43.503Z,95.71
2023-04-11T05:04:10.504Z,95.94
2023-04-11T05:06:37.460Z,95.93
2023-04-11T05:09:06.331Z,96.58
2023-04-11T05:11:33.957Z,94.39
2023-04-11T05:14:00.894Z,94.81
2023-04-11T05:16:27.668Z,94.81
2023-04-11T05:18:54.443Z,94.93
2023-04-11T05:21:22.540Z,94.06
2023-04-11T05:23:49.393Z,94.54
2023-04-11T05:26:16.204Z,94.85
2023-04-11T05:28:43.068Z,94.92
2023-04-11T05:31:10.190Z,95.23
2023-04-11T05:33:39.629Z,94.94
2023-04-11T05:36:06.979Z,95.91
2023-04-11T05:38:33.964Z,94.76
2023-04-11T05:41:00.828Z,94.36
2023-04-11T05:43:27.675Z,94.92
2023-04-11T05:45:54.980Z,94.27
2023-04-11T05:48:23.152Z,92.35
2023-04-11T05:50:50.657Z,92.71
2023-04-11T05:53:17.585Z,93.19
2023-04-11T05:55:44.364Z,92.84
2023-04-11T05:58:11.424Z,93.54
2023-04-11T06:00:38.675Z,92.04
2023-04-11T06:03:06.200Z,93.64
2023-04-11T06:05:33.244Z,92.07
2023-04-11T06:08:00.695Z,92.95
2023-04-11T06:10:28.660Z,92.12
2023-04-11T06:12:55.686Z,91.01
2023-04-11T06:15:23.754Z,92.76
2023-04-11T06:17:50.811Z,92.98
2023-04-11T06:20:18.084Z,92.30
2023-04-11T06:22:47.025Z,92.40
2023-04-11T06:25:14.588Z,92.83
2023-04-11T06:27:41.608Z,92.59
2023-04-11T06:30:09.427Z,92.50
2023-04-11T06:32:36.529Z,90.99
2023-04-11T06:35:03.556Z,91.04
2023-04-11T06:37:30.290Z,90.72
2023-04-11T06:39:57.036Z,91.19
2023-04-11T06:42:23.860Z,90.41
2023-04-11T06:44:50.578Z,90.22
2023-04-11T06:47:17.386Z,92.22
2023-04-11T06:49:44.106Z,91.13
2023-04-11T06:52:11.217Z,89.28
2023-04-11T06:54:38.014Z,91.94
2023-04-11T06:57:04.788Z,90.19
2023-04-11T06:59:32.323Z,89.50
2023-04-11T07:01:59.747Z,88.56
2023-04-11T07:04:26.960Z,89.85
2023-04-11T07:06:53.829Z,89.19
2023-04-11T07:09:20.541Z,89.01
2023-04-11T07:11:47.343Z,87.67
2023-04-11T07:14:14.244Z,88.81
2023-04-11T07:16:41.098Z,87.80
2023-04-11T07:19:08.156Z,88.42
2023-04-11T07:21:34.965Z,90.35
2023-04-11T07:24:01.779Z,89.15
2023-04-11T07:26:32.814Z,86.00
2023-04-11T07:28:59.885Z,85.74
2023-04-11T07:31:29.665Z,87.75
2023-04-11T07:33:56.778Z,87.80
2023-04-11T07:36:23.697Z,88.44
2023-04-11T07:38:50.694Z,86.95
2023-04-11T07:41:17.546Z,86.29
2023-04-11T07:43:44.288Z,85.91
2023-04-11T07:46:12.609Z,87.54
2023-04-11T07:48:39.451Z,86.55
2023-04-11T07:51:06.527Z,84.04
2023-04-11T07:53:33.490Z,87.91
2023-04-11T07:56:00.695Z,90.75
2023-04-11T07:58:28.698Z,88.12
2023-04-11T08:00:55.634Z,89.73
2023-04-11T08:03:23.777Z,91.68
2023-04-11T08:05:50.841Z,91.96
2023-04-11T08:08:17.574Z,91.95
2023-04-11T08:10:44.360Z,91.02
2023-04-11T08:13:11.494Z,90.43
2023-04-11T08:15:39.091Z,90.92
2023-04-11T08:18:06.108Z,91.07
2023-04-11T08:20:32.930Z,91.41
2023-04-11T08:23:00.723Z,89.97
2023-04-11T08:25:27.471Z,91.89
2023-04-11T08:27:54.203Z,91.94
2023-04-11T08:30:21.449Z,91.66
2023-04-11T08:32:48.333Z,93.19
2023-04-11T08:35:15.185Z,92.11
2023-04-11T08:37:41.979Z,89.96
2023-04-11T08:40:09.382Z,91.49
2023-04-11T08:42:36.508Z,90.52
2023-04-11T08:45:06.188Z,88.83
2023-04-11T08:47:33.014Z,88.69
2023-04-11T08:49:59.763Z,87.02
2023-04-11T08:52:26.635Z,88.41
2023-04-11T08:54:57.154Z,83.95
2023-04-11T08:57:27.816Z,85.17
2023-04-11T09:00:01.034Z,85.92
2023-04-11T09:02:28.142Z,83.12
2023-04-11T09:04:57.922Z,81.49
2023-04-11T09:07:24.887Z,81.14
2023-04-11T09:09:51.722Z,80.76
2023-04-11T09:12:29.353Z,81.23
2023-04-11T09:14:56.567Z,79.51
2023-04-11T09:17:23.458Z,77.01
2023-04-11T09:19:50.228Z,79.19
2023-04-11T09:22:16.924Z,78.84
2023-04-11T09:24:43.641Z,80.06
2023-04-11T09:27:19.803Z,81.13
2023-04-11T09:29:48.340Z,78.50
2023-04-11T09:32:35.162Z,77.92
2023-04-11T09:35:20.897Z,76.58
2023-04-11T09:37:49.445Z,74.44
2023-04-11T09:40:18.602Z,73.92
2023-04-11T09:42:47.253Z,72.98
2023-04-11T09:45:22.397Z,73.03
2023-04-11T09:47:52.984Z,73.13
2023-04-11T09:50:20.708Z,72.47
2023-04-11T09:52:47.636Z,67.77
2023-04-11T09:55:16.604Z,70.02
2023-04-11T09:57:48.467Z,68.98
2023-04-11T10:00:18.629Z,69.20
2023-04-11T10:02:53.166Z,73.98
2023-04-11T10:05:22.302Z,78.33
2023-04-11T10:08:04.147Z,78.40
2023-04-11T10:10:31.365Z,75.98
2023-04-11T10:12:58.145Z,77.37
2023-04-11T10:15:24.885Z,77.37
2023-04-11T10:18:11.861Z,77.42
2023-04-11T10:20:43.968Z,74.70
2023-04-11T10:23:11.711Z,75.34
2023-04-11T10:25:53.443Z,72.48
2023-04-11T10:28:46.247Z,71.51
2023-04-11T10:31:17.657Z,73.76
2023-04-11T10:34:17.016Z,74.79
2023-04-11T10:37:04.429Z,73.38
2023-04-11T10:40:00.990Z,69.43
2023-04-11T10:42:31.824Z,70.71
2023-04-11T10:45:18.078Z,73.08
2023-04-11T10:48:01.232Z,72.18
2023-04-11T10:50:28.323Z,74.85
2023-04-11T10:53:00.364Z,75.05
2023-04-11T10:55:29.033Z,72.53
2023-04-11T10:58:08.643Z,73.43
2023-04-11T11:00:50.963Z,72.56
2023-04-11T11:03:21.739Z,72.29
2023-04-11T11:05:58.681Z,68.77
2023-04-11T11:08:30.769Z,67.08
2023-04-11T11:11:06.499Z,67.95
2023-04-11T11:13:44.258Z,67.32
2023-04-11T11:16:16.462Z,68.05
2023-04-11T11:18:54.482Z,67.14
2023-04-11T11:21:27.696Z,68.17
2023-04-11T11:24:00.257Z,68.50
2023-04-11T11:26:37.113Z,74.21
2023-04-11T11:29:05.426Z,79.27
2023-04-11T11:31:39.678Z,77.02
2023-04-11T11:34:22.166Z,77.57
2023-04-11T11:36:50.817Z,78.34
2023-04-11T11:39:18.218Z,77.44
2023-04-11T11:41:46.141Z,77.37
2023-04-11T11:44:30.213Z,79.26
2023-04-11T11:47:05.960Z,78.56
2023-04-11T11:49:49.892Z,82.42
2023-04-11T11:52:33.402Z,78.80
2023-04-11T11:55:08.057Z,78.49
2023-04-11T11:57:46.908Z,78.52
2023-04-11T12:00:15.272Z,78.20
2023-04-11T12:02:45.259Z,78.88
2023-04-11T12:05:12.601Z,80.53
2023-04-11T12:07:40.107Z,82.01
2023-04-11T12:10:09.434Z,83.86
2023-04-11T12:12:37.723Z,82.69
2023-04-11T12:15:24.909Z,82.81
2023-04-11T12:17:52.811Z,82.40
2023-04-11T12:20:26.938Z,78.93
2023-04-11T12:22:55.069Z,82.18
2023-04-11T12:25:22.724Z,81.69
2023-04-11T12:27:49.485Z,81.73
2023-04-11T12:30:16.313Z,82.59
2023-04-11T12:32:44.139Z,83.41
2023-04-11T12:35:12.015Z,81.56
2023-04-11T12:37:39.365Z,79.58
2023-04-11T12:40:13.109Z,83.30
2023-04-11T12:45:12.128Z,84.35
2023-04-11T12:47:39.314Z,82.24
2023-04-11T12:50:07.427Z,83.65
2023-04-11T12:52:34.620Z,84.93
2023-04-11T12:55:01.479Z,81.41
2023-04-11T12:57:28.380Z,82.27
2023-04-11T12:59:55.133Z,80.74
2023-04-11T13:02:22.094Z,77.57
2023-04-11T13:04:53.275Z,80.18
2023-04-11T13:07:21.588Z,75.15
2023-04-11T13:09:49.698Z,74.65
2023-04-11T13:12:16.758Z,73.31
2023-04-11T13:14:43.591Z,72.20
2023-04-11T13:17:10.405Z,70.41
2023-04-11T13:19:37.141Z,67.51
2023-04-11T13:22:04.238Z,68.98
2023-04-11T13:24:32.243Z,68.32
2023-04-11T13:26:59.316Z,66.33
2023-04-11T13:29:26.483Z,63.99
2023-04-11T13:31:53.543Z,67.65
2023-04-11T13:34:20.677Z,68.40
2023-04-11T13:36:47.475Z,63.17
2023-04-11T13:39:14.425Z,65.09
2023-04-11T13:41:41.239Z,65.47
2023-04-11T13:44:08.105Z,65.85
2023-04-11T13:46:34.811Z,67.58
2023-04-11T13:49:01.801Z,62.21
2023-04-11T13:51:28.588Z,63.78
2023-04-11T13:53:55.717Z,62.71
2023-04-11T13:56:22.873Z,58.77
2023-04-11T13:58:49.866Z,60.98
2023-04-11T14:01:17.333Z,58.33
2023-04-11T14:03:45.055Z,58.79
2023-04-11T14:06:11.948Z,59.18
2023-04-11T14:08:38.847Z,57.72
2023-04-11T14:11:05.856Z,53.11
2023-04-11T14:13:32.598Z,52.34
2023-04-11T14:16:07.982Z,54.90
2023-04-11T14:18:35.526Z,54.44
2023-04-11T14:21:02.571Z,55.00
2023-04-11T14:23:29.838Z,57.26
2023-04-11T14:25:57.002Z,58.01
2023-04-11T14:28:26.636Z,54.40
2023-04-11T14:30:53.828Z,55.23
2023-04-11T14:33:20.763Z,55.66
2023-04-11T14:35:47.636Z,52.51
2023-04-11T14:38:16.096Z,47.44
2023-04-11T14:40:44.773Z,51.73
2023-04-11T14:43:11.594Z,52.24
2023-04-11T14:45:38.387Z,55.83
2023-04-11T14:48:05.650Z,54.21
2023-04-11T14:50:32.619Z,54.04
2023-04-11T14:52:59.434Z,54.25
2023-04-11T14:55:26.255Z,55.47
2023-04-11T14:57:55.027Z,55.74
2023-04-11T15:00:22.897Z,56.23
2023-04-11T15:02:55.285Z,54.83
2023-04-11T15:05:23.539Z,51.84
2023-04-11T15:07:51.841Z,47.37
2023-04-11T15:10:23.337Z,43.15
2023-04-11T15:12:50.590Z,45.63
2023-04-11T15:15:17.647Z,48.27
2023-04-11T15:17:49.678Z,51.45
2023-04-11T15:20:17.086Z,50.38
2023-04-11T15:22:46.682Z,51.39
2023-04-11T15:25:16.842Z,50.87
2023-04-11T15:27:44.134Z,49.31
2023-04-11T15:30:11.605Z,42.90
2023-04-11T15:32:44.446Z,42.73
2023-04-11T15:35:11.390Z,41.71
2023-04-11T15:37:38.197Z,42.55
2023-04-11T15:40:09.597Z,39.78
2023-04-11T15:42:37.816Z,41.13
2023-04-11T15:45:05.312Z,40.65
2023-04-11T15:47:32.258Z,43.47
2023-04-11T15:50:02.109Z,46.50
2023-04-11T15:52:28.958Z,50.04
2023-04-11T15:54:56.457Z,50.23
2023-04-11T15:57:23.212Z,46.63
2023-04-11T15:59:49.998Z,42.76
2023-04-11T16:02:16.875Z,43.57
2023-04-11T16:04:46.204Z,43.43
2023-04-11T16:07:18.574Z,42.34
2023-04-11T16:09:45.724Z,45.27
2023-04-11T16:12:12.697Z,45.62
2023-04-11T16:14:39.441Z,49.21
2023-04-11T16:17:06.555Z,48.85
2023-04-11T16:19:33.483Z,49.20
2023-04-11T16:22:00.317Z,49.34
2023-04-11T16:24:29.446Z,50.76
2023-04-11T16:26:57.548Z,51.59
2023-04-11T16:29:25.403Z,51.33
2023-04-11T16:31:52.324Z,51.09
2023-04-11T16:34:19.350Z,51.09
2023-04-11T16:36:46.181Z,53.18
2023-04-11T16:39:13.096Z,53.32
2023-04-11T16:41:39.845Z,54.06
2023-04-11T16:44:11.587Z,54.30
2023-04-11T16:46:41.991Z,52.73
2023-04-11T16:49:09.864Z,53.96
2023-04-11T16:51:36.846Z,52.30
2023-04-11T16:54:09.607Z,52.93
2023-04-11T16:56:37.475Z,53.56
2023-04-11T16:59:05.117Z,55.21
2023-04-11T17:01:32.291Z,55.77
2023-04-11T17:03:59.499Z,58.45
2023-04-11T17:06:27.372Z,55.60
2023-04-11T17:08:54.199Z,56.11
2023-04-11T17:11:21.007Z,55.74
2023-04-11T17:13:49.634Z,57.62
2023-04-11T17:16:19.932Z,56.48
2023-04-11T17:18:46.759Z,57.82
2023-04-11T17:21:13.480Z,56.94
2023-04-11T17:23:43.339Z,56.95
2023-04-11T17:26:11.472Z,56.89
2023-04-11T17:28:41.240Z,58.39
2023-04-11T17:31:15.628Z,57.56
2023-04-11T17:33:42.937Z,59.23
2023-04-11T17:36:11.673Z,60.35
2023-04-11T17:38:39.124Z,58.62
2023-04-11T17:41:14.245Z,58.82
2023-04-11T17:43:42.280Z,58.59
2023-04-11T17:46:09.297Z,60.90
2023-04-11T17:48:36.655Z,58.92
2023-04-11T17:51:04.797Z,60.07
2023-04-11T17:53:31.889Z,61.45
2023-04-11T17:55:58.735Z,61.71
2023-04-11T17:58:25.643Z,62.30
2023-04-11T18:00:56.644Z,62.07
2023-04-11T18:03:25.791Z,62.42
2023-04-11T18:05:54.751Z,63.99
2023-04-11T18:08:32.249Z,61.51
2023-04-11T18:11:09.232Z,64.97
2023-04-11T18:13:35.965Z,64.93
2023-04-11T18:16:02.801Z,68.82
2023-04-11T18:18:29.588Z,66.34
2023-04-11T18:21:04.088Z,67.92
2023-04-11T18:23:33.584Z,69.42
2023-04-11T18:26:00.540Z,68.82
2023-04-11T18:28:27.281Z,68.27
2023-04-11T18:30:54.102Z,69.03
2023-04-11T18:33:21.083Z,70.34
2023-04-11T18:35:48.419Z,71.20
2023-04-11T18:38:15.401Z,70.13
2023-04-11T18:40:42.238Z,69.66
2023-04-11T18:43:09.097Z,72.46
2023-04-11T18:45:35.897Z,71.90
2023-04-11T18:48:02.894Z,72.65
2023-04-11T18:50:30.956Z,72.79
2023-04-11T18:53:03.564Z,72.23
2023-04-11T18:55:32.160Z,73.20
2023-04-11T18:58:00.430Z,74.17
2023-04-11T19:00:29.725Z,74.80
2023-04-11T19:02:56.677Z,74.89
2023-04-11T19:05:25.574Z,73.59
2023-04-11T19:07:52.981Z,74.23
2023-04-11T19:10:20.341Z,76.37
2023-04-11T19:12:47.184Z,77.68
2023-04-11T19:15:14.002Z,78.42
2023-04-11T19:17:41.019Z,78.67
2023-04-11T19:20:12.969Z,77.94
2023-04-11T19:22:41.340Z,77.86
2023-04-11T19:25:12.452Z,78.10
2023-04-11T19:27:41.884Z,76.63
2023-04-11T19:30:10.465Z,77.16
2023-04-11T19:32:41.051Z,79.40
2023-04-11T19:35:10.653Z,79.32
2023-04-11T19:37:37.880Z,79.71
2023-04-11T19:40:11.105Z,80.02
2023-04-11T19:42:39.987Z,79.80
2023-04-11T19:45:09.408Z,80.52
2023-04-11T19:47:36.187Z,79.96
2023-04-11T19:50:03.239Z,80.08
2023-04-11T19:52:29.992Z,80.11
2023-04-11T19:54:57.157Z,81.47
2023-04-11T19:57:26.664Z,79.83
2023-04-11T19:59:53.671Z,80.58
2023-04-11T20:02:21.415Z,78.99
2023-04-11T20:04:48.459Z,78.22
2023-04-11T20:07:15.986Z,77.44
2023-04-11T20:09:42.717Z,78.27
2023-04-11T20:12:09.502Z,77.23
2023-04-11T20:14:38.368Z,76.36
2023-04-11T20:17:06.412Z,76.56
2023-04-11T20:21:25.366Z,77.25
